Weather at Warsaw Chopin Airport

Public forecast

Using degrees Celsius for public forecast. Weather courtesy of forecast.io.

Current aviation weather report (METAR) for Warsaw Chopin Airport

Retrieved 2020/09/25 00:30 UTC (0 seconds ago):

EPWA 250030Z 15006KT 7000 MIFG NSC 14/14 Q1006 BECMG 5000 BR

Aviation forecast (TAF) for Warsaw Chopin Airport

Retrieved 2020-09-25 00:33 UTC (0 seconds ago):

TAF TAF EPWA 242330Z 2500/2524 14002KT CAVOK TEMPO 2500/2506 2500 BR PROB30 2501/2505 0500 FG BKN002 BECMG 2505/2508 15012KT PROB40 TEMPO 2509/2521 16015G25KT SCT040TCU